sensor_id;sensor_type;location;lat;lon;timestamp;P1;durP1;ratioP1;P2;durP2;ratioP2
47713;SDS011;33475;46.614;13.888;2022-12-18T00:01:23;13.40;;;10.02;;
47713;SDS011;33475;46.614;13.888;2022-12-18T00:03:50;12.40;;;10.70;;
47713;SDS011;33475;46.614;13.888;2022-12-18T00:06:16;13.35;;;10.70;;
47713;SDS011;33475;46.614;13.888;2022-12-18T00:08:43;11.25;;;9.82;;
47713;SDS011;33475;46.614;13.888;2022-12-18T00:11:14;13.15;;;10.65;;
47713;SDS011;33475;46.614;13.888;2022-12-18T00:13:40;15.43;;;9.80;;
47713;SDS011;33475;46.614;13.888;2022-12-18T00:16:07;11.10;;;9.38;;
47713;SDS011;33475;46.614;13.888;2022-12-18T00:18:34;11.05;;;9.10;;
47713;SDS011;33475;46.614;13.888;2022-12-18T00:21:01;11.70;;;8.63;;
47713;SDS011;33475;46.614;13.888;2022-12-18T00:23:28;11.52;;;9.00;;
47713;SDS011;33475;46.614;13.888;2022-12-18T00:25:54;25.55;;;18.40;;
47713;SDS011;33475;46.614;13.888;2022-12-18T00:28:20;14.25;;;10.45;;
47713;SDS011;33475;46.614;13.888;2022-12-18T00:30:46;18.15;;;12.63;;
47713;SDS011;33475;46.614;13.888;2022-12-18T00:33:16;16.77;;;12.13;;
47713;SDS011;33475;46.614;13.888;2022-12-18T00:35:42;21.70;;;12.07;;
47713;SDS011;33475;46.614;13.888;2022-12-18T00:38:08;16.40;;;10.00;;
47713;SDS011;33475;46.614;13.888;2022-12-18T00:40:34;13.10;;;10.32;;
47713;SDS011;33475;46.614;13.888;2022-12-18T00:43:00;12.57;;;10.75;;
47713;SDS011;33475;46.614;13.888;2022-12-18T00:45:30;11.77;;;9.05;;
47713;SDS011;33475;46.614;13.888;2022-12-18T00:47:56;14.63;;;10.88;;
47713;SDS011;33475;46.614;13.888;2022-12-18T00:50:23;11.23;;;9.80;;
47713;SDS011;33475;46.614;13.888;2022-12-18T00:52:49;11.57;;;9.55;;
47713;SDS011;33475;46.614;13.888;2022-12-18T00:55:16;14.75;;;9.57;;
47713;SDS011;33475;46.614;13.888;2022-12-18T00:57:42;12.52;;;9.82;;
47713;SDS011;33475;46.614;13.888;2022-12-18T01:00:10;11.73;;;9.48;;
47713;SDS011;33475;46.614;13.888;2022-12-18T01:02:37;12.18;;;9.80;;
47713;SDS011;33475;46.614;13.888;2022-12-18T01:05:03;12.20;;;9.95;;
47713;SDS011;33475;46.614;13.888;2022-12-18T01:07:30;10.75;;;9.57;;
47713;SDS011;33475;46.614;13.888;2022-12-18T01:09:56;11.60;;;9.40;;
47713;SDS011;33475;46.614;13.888;2022-12-18T01:12:22;12.50;;;9.60;;
47713;SDS011;33475;46.614;13.888;2022-12-18T01:14:48;13.18;;;9.40;;
47713;SDS011;33475;46.614;13.888;2022-12-18T01:17:15;15.55;;;9.45;;
47713;SDS011;33475;46.614;13.888;2022-12-18T01:19:41;13.38;;;8.68;;
47713;SDS011;33475;46.614;13.888;2022-12-18T01:22:07;12.63;;;8.90;;
47713;SDS011;33475;46.614;13.888;2022-12-18T01:24:33;10.40;;;8.90;;
47713;SDS011;33475;46.614;13.888;2022-12-18T01:26:59;10.80;;;8.77;;
47713;SDS011;33475;46.614;13.888;2022-12-18T01:29:25;9.52;;;8.52;;
47713;SDS011;33475;46.614;13.888;2022-12-18T01:31:54;12.07;;;8.55;;
47713;SDS011;33475;46.614;13.888;2022-12-18T01:34:20;10.35;;;8.85;;
47713;SDS011;33475;46.614;13.888;2022-12-18T01:36:46;10.88;;;9.05;;
47713;SDS011;33475;46.614;13.888;2022-12-18T01:39:13;10.48;;;8.23;;
47713;SDS011;33475;46.614;13.888;2022-12-18T01:41:40;14.57;;;8.13;;
47713;SDS011;33475;46.614;13.888;2022-12-18T01:47:12;9.32;;;8.20;;
47713;SDS011;33475;46.614;13.888;2022-12-18T01:49:40;10.52;;;8.20;;
47713;SDS011;33475;46.614;13.888;2022-12-18T01:52:07;10.90;;;8.75;;
47713;SDS011;33475;46.614;13.888;2022-12-18T01:54:33;9.48;;;8.25;;
47713;SDS011;33475;46.614;13.888;2022-12-18T01:57:00;9.07;;;8.18;;
47713;SDS011;33475;46.614;13.888;2022-12-18T01:59:26;11.82;;;7.80;;
47713;SDS011;33475;46.614;13.888;2022-12-18T02:01:53;10.23;;;8.45;;
47713;SDS011;33475;46.614;13.888;2022-12-18T02:04:22;9.00;;;7.93;;
47713;SDS011;33475;46.614;13.888;2022-12-18T02:06:50;8.65;;;7.72;;
47713;SDS011;33475;46.614;13.888;2022-12-18T02:09:23;9.07;;;8.05;;
47713;SDS011;33475;46.614;13.888;2022-12-18T02:24:48;11.25;;;8.65;;
47713;SDS011;33475;46.614;13.888;2022-12-18T02:27:19;10.35;;;9.25;;
47713;SDS011;33475;46.614;13.888;2022-12-18T02:29:48;11.02;;;8.35;;
47713;SDS011;33475;46.614;13.888;2022-12-18T02:32:24;10.23;;;9.13;;
47713;SDS011;33475;46.614;13.888;2022-12-18T02:34:52;15.52;;;9.02;;
47713;SDS011;33475;46.614;13.888;2022-12-18T02:37:20;11.13;;;8.40;;
47713;SDS011;33475;46.614;13.888;2022-12-18T02:39:47;10.20;;;8.25;;
47713;SDS011;33475;46.614;13.888;2022-12-18T02:42:14;10.90;;;8.90;;
47713;SDS011;33475;46.614;13.888;2022-12-18T02:44:48;13.00;;;9.32;;
47713;SDS011;33475;46.614;13.888;2022-12-18T02:47:16;11.50;;;8.65;;
47713;SDS011;33475;46.614;13.888;2022-12-18T02:57:40;15.45;;;9.80;;
47713;SDS011;33475;46.614;13.888;2022-12-18T03:02:48;18.42;;;10.40;;
47713;SDS011;33475;46.614;13.888;2022-12-18T03:05:19;12.23;;;10.18;;
47713;SDS011;33475;46.614;13.888;2022-12-18T03:10:13;11.68;;;9.27;;
47713;SDS011;33475;46.614;13.888;2022-12-18T03:12:42;13.57;;;10.13;;
47713;SDS011;33475;46.614;13.888;2022-12-18T03:15:11;11.88;;;10.60;;
47713;SDS011;33475;46.614;13.888;2022-12-18T03:17:40;14.52;;;10.50;;
47713;SDS011;33475;46.614;13.888;2022-12-18T03:20:12;13.27;;;10.70;;
47713;SDS011;33475;46.614;13.888;2022-12-18T03:22:40;12.73;;;11.20;;
47713;SDS011;33475;46.614;13.888;2022-12-18T03:25:09;13.50;;;11.75;;
47713;SDS011;33475;46.614;13.888;2022-12-18T03:27:37;13.88;;;11.35;;
47713;SDS011;33475;46.614;13.888;2022-12-18T03:30:06;13.50;;;11.38;;
47713;SDS011;33475;46.614;13.888;2022-12-18T03:35:10;12.50;;;11.00;;
47713;SDS011;33475;46.614;13.888;2022-12-18T03:37:38;19.02;;;11.30;;
47713;SDS011;33475;46.614;13.888;2022-12-18T03:40:04;11.57;;;10.38;;
47713;SDS011;33475;46.614;13.888;2022-12-18T03:47:44;12.48;;;9.95;;
47713;SDS011;33475;46.614;13.888;2022-12-18T03:50:18;15.25;;;10.30;;
47713;SDS011;33475;46.614;13.888;2022-12-18T03:52:51;11.63;;;9.80;;
47713;SDS011;33475;46.614;13.888;2022-12-18T03:55:18;10.40;;;9.35;;
47713;SDS011;33475;46.614;13.888;2022-12-18T03:57:45;12.30;;;10.13;;
47713;SDS011;33475;46.614;13.888;2022-12-18T04:00:13;12.50;;;9.30;;
47713;SDS011;33475;46.614;13.888;2022-12-18T04:02:42;12.05;;;9.60;;
47713;SDS011;33475;46.614;13.888;2022-12-18T04:05:09;13.52;;;9.85;;
47713;SDS011;33475;46.614;13.888;2022-12-18T04:07:36;11.43;;;8.68;;
47713;SDS011;33475;46.614;13.888;2022-12-18T04:10:03;11.95;;;9.52;;
47713;SDS011;33475;46.614;13.888;2022-12-18T04:12:31;12.43;;;9.20;;
47713;SDS011;33475;46.614;13.888;2022-12-18T04:14:57;10.68;;;9.57;;
47713;SDS011;33475;46.614;13.888;2022-12-18T04:17:23;14.05;;;9.35;;
47713;SDS011;33475;46.614;13.888;2022-12-18T04:19:49;20.15;;;14.50;;
47713;SDS011;33475;46.614;13.888;2022-12-18T04:22:16;16.13;;;11.77;;
47713;SDS011;33475;46.614;13.888;2022-12-18T04:24:42;15.38;;;11.90;;
47713;SDS011;33475;46.614;13.888;2022-12-18T04:27:08;13.57;;;10.13;;
47713;SDS011;33475;46.614;13.888;2022-12-18T04:29:34;16.75;;;11.10;;
47713;SDS011;33475;46.614;13.888;2022-12-18T04:32:00;14.15;;;10.38;;
47713;SDS011;33475;46.614;13.888;2022-12-18T04:34:26;13.98;;;11.27;;
47713;SDS011;33475;46.614;13.888;2022-12-18T04:36:52;12.00;;;10.50;;
47713;SDS011;33475;46.614;13.888;2022-12-18T04:39:18;12.40;;;9.15;;
47713;SDS011;33475;46.614;13.888;2022-12-18T04:41:44;13.70;;;10.23;;
47713;SDS011;33475;46.614;13.888;2022-12-18T04:44:11;12.52;;;9.95;;
47713;SDS011;33475;46.614;13.888;2022-12-18T04:46:37;14.60;;;9.38;;
47713;SDS011;33475;46.614;13.888;2022-12-18T04:49:03;18.75;;;10.35;;
47713;SDS011;33475;46.614;13.888;2022-12-18T04:51:29;15.00;;;10.48;;
47713;SDS011;33475;46.614;13.888;2022-12-18T04:53:55;12.32;;;9.90;;
47713;SDS011;33475;46.614;13.888;2022-12-18T04:56:21;14.38;;;11.25;;
47713;SDS011;33475;46.614;13.888;2022-12-18T04:58:47;16.92;;;12.57;;
47713;SDS011;33475;46.614;13.888;2022-12-18T05:01:15;15.98;;;11.15;;
47713;SDS011;33475;46.614;13.888;2022-12-18T05:03:41;13.90;;;10.20;;
47713;SDS011;33475;46.614;13.888;2022-12-18T05:06:08;14.82;;;11.75;;
47713;SDS011;33475;46.614;13.888;2022-12-18T05:08:34;13.02;;;10.70;;
47713;SDS011;33475;46.614;13.888;2022-12-18T05:11:01;13.85;;;10.93;;
47713;SDS011;33475;46.614;13.888;2022-12-18T05:13:27;13.82;;;10.73;;
47713;SDS011;33475;46.614;13.888;2022-12-18T05:15:54;11.98;;;10.05;;
47713;SDS011;33475;46.614;13.888;2022-12-18T05:18:21;12.38;;;9.07;;
47713;SDS011;33475;46.614;13.888;2022-12-18T05:20:48;10.93;;;9.07;;
47713;SDS011;33475;46.614;13.888;2022-12-18T05:23:14;9.73;;;8.73;;
47713;SDS011;33475;46.614;13.888;2022-12-18T05:25:41;9.52;;;8.35;;
47713;SDS011;33475;46.614;13.888;2022-12-18T05:28:07;11.02;;;9.10;;
47713;SDS011;33475;46.614;13.888;2022-12-18T05:30:33;11.50;;;9.30;;
47713;SDS011;33475;46.614;13.888;2022-12-18T05:32:59;11.30;;;8.25;;
47713;SDS011;33475;46.614;13.888;2022-12-18T05:35:25;10.70;;;8.93;;
47713;SDS011;33475;46.614;13.888;2022-12-18T05:37:51;10.82;;;8.68;;
47713;SDS011;33475;46.614;13.888;2022-12-18T05:40:17;11.55;;;9.13;;
47713;SDS011;33475;46.614;13.888;2022-12-18T05:42:43;11.30;;;9.75;;
47713;SDS011;33475;46.614;13.888;2022-12-18T05:45:09;12.15;;;10.20;;
47713;SDS011;33475;46.614;13.888;2022-12-18T05:47:36;13.43;;;10.52;;
47713;SDS011;33475;46.614;13.888;2022-12-18T05:50:02;13.25;;;10.82;;
47713;SDS011;33475;46.614;13.888;2022-12-18T05:52:28;13.48;;;10.73;;
47713;SDS011;33475;46.614;13.888;2022-12-18T05:54:54;17.17;;;13.32;;
47713;SDS011;33475;46.614;13.888;2022-12-18T05:57:20;17.90;;;13.80;;
47713;SDS011;33475;46.614;13.888;2022-12-18T05:59:46;18.40;;;11.82;;
47713;SDS011;33475;46.614;13.888;2022-12-18T06:02:12;32.65;;;19.88;;
47713;SDS011;33475;46.614;13.888;2022-12-18T06:04:39;43.50;;;25.48;;
47713;SDS011;33475;46.614;13.888;2022-12-18T06:07:05;25.65;;;19.80;;
47713;SDS011;33475;46.614;13.888;2022-12-18T06:09:31;21.88;;;15.55;;
47713;SDS011;33475;46.614;13.888;2022-12-18T06:11:57;22.95;;;15.80;;
47713;SDS011;33475;46.614;13.888;2022-12-18T06:14:23;20.83;;;15.10;;
47713;SDS011;33475;46.614;13.888;2022-12-18T06:16:52;19.88;;;13.60;;
47713;SDS011;33475;46.614;13.888;2022-12-18T06:19:19;17.92;;;14.20;;
47713;SDS011;33475;46.614;13.888;2022-12-18T06:21:45;25.70;;;15.60;;
47713;SDS011;33475;46.614;13.888;2022-12-18T06:24:11;24.20;;;14.98;;
47713;SDS011;33475;46.614;13.888;2022-12-18T06:26:40;22.02;;;14.20;;
47713;SDS011;33475;46.614;13.888;2022-12-18T06:29:06;14.82;;;12.48;;
47713;SDS011;33475;46.614;13.888;2022-12-18T06:31:32;16.55;;;12.50;;
47713;SDS011;33475;46.614;13.888;2022-12-18T06:34:01;17.20;;;12.68;;
47713;SDS011;33475;46.614;13.888;2022-12-18T06:36:27;16.20;;;13.23;;
47713;SDS011;33475;46.614;13.888;2022-12-18T06:38:54;14.60;;;12.88;;
47713;SDS011;33475;46.614;13.888;2022-12-18T06:41:20;18.98;;;13.15;;
47713;SDS011;33475;46.614;13.888;2022-12-18T06:43:46;18.05;;;12.40;;
47713;SDS011;33475;46.614;13.888;2022-12-18T06:46:13;16.50;;;12.88;;
47713;SDS011;33475;46.614;13.888;2022-12-18T06:48:39;14.38;;;11.30;;
47713;SDS011;33475;46.614;13.888;2022-12-18T06:51:05;13.52;;;11.40;;
47713;SDS011;33475;46.614;13.888;2022-12-18T06:53:32;14.38;;;11.68;;
47713;SDS011;33475;46.614;13.888;2022-12-18T06:56:02;18.85;;;11.52;;
47713;SDS011;33475;46.614;13.888;2022-12-18T06:58:28;18.45;;;11.02;;
47713;SDS011;33475;46.614;13.888;2022-12-18T07:00:59;15.95;;;11.88;;
47713;SDS011;33475;46.614;13.888;2022-12-18T07:03:25;16.73;;;10.57;;
47713;SDS011;33475;46.614;13.888;2022-12-18T07:05:51;17.83;;;11.55;;
47713;SDS011;33475;46.614;13.888;2022-12-18T07:08:18;15.18;;;11.07;;
47713;SDS011;33475;46.614;13.888;2022-12-18T07:10:44;15.77;;;11.70;;
47713;SDS011;33475;46.614;13.888;2022-12-18T07:13:10;13.93;;;11.10;;
47713;SDS011;33475;46.614;13.888;2022-12-18T07:15:36;12.15;;;10.20;;
47713;SDS011;33475;46.614;13.888;2022-12-18T07:18:02;14.57;;;10.60;;
47713;SDS011;33475;46.614;13.888;2022-12-18T07:20:29;11.23;;;10.00;;
47713;SDS011;33475;46.614;13.888;2022-12-18T07:22:55;12.98;;;10.18;;
47713;SDS011;33475;46.614;13.888;2022-12-18T07:25:21;14.50;;;11.55;;
47713;SDS011;33475;46.614;13.888;2022-12-18T07:27:47;16.95;;;11.80;;
47713;SDS011;33475;46.614;13.888;2022-12-18T07:30:13;19.75;;;13.68;;
47713;SDS011;33475;46.614;13.888;2022-12-18T07:32:39;14.57;;;12.35;;
47713;SDS011;33475;46.614;13.888;2022-12-18T07:35:05;14.15;;;12.57;;
47713;SDS011;33475;46.614;13.888;2022-12-18T07:37:31;21.73;;;14.75;;
47713;SDS011;33475;46.614;13.888;2022-12-18T07:39:57;20.42;;;14.63;;
47713;SDS011;33475;46.614;13.888;2022-12-18T07:42:24;15.52;;;12.00;;
47713;SDS011;33475;46.614;13.888;2022-12-18T07:44:56;16.45;;;12.05;;
47713;SDS011;33475;46.614;13.888;2022-12-18T07:47:22;14.88;;;11.27;;
47713;SDS011;33475;46.614;13.888;2022-12-18T07:49:48;13.57;;;11.70;;
47713;SDS011;33475;46.614;13.888;2022-12-18T07:52:14;15.40;;;11.18;;
47713;SDS011;33475;46.614;13.888;2022-12-18T07:54:41;21.10;;;13.50;;
47713;SDS011;33475;46.614;13.888;2022-12-18T07:57:07;18.20;;;12.57;;
47713;SDS011;33475;46.614;13.888;2022-12-18T07:59:33;17.27;;;13.80;;
47713;SDS011;33475;46.614;13.888;2022-12-18T08:02:00;14.45;;;12.88;;
47713;SDS011;33475;46.614;13.888;2022-12-18T08:04:26;13.65;;;11.77;;
47713;SDS011;33475;46.614;13.888;2022-12-18T08:06:52;14.07;;;11.43;;
47713;SDS011;33475;46.614;13.888;2022-12-18T08:09:19;14.80;;;11.55;;
47713;SDS011;33475;46.614;13.888;2022-12-18T08:11:45;11.23;;;9.65;;
47713;SDS011;33475;46.614;13.888;2022-12-18T08:14:11;15.18;;;10.75;;
47713;SDS011;33475;46.614;13.888;2022-12-18T08:16:37;11.52;;;10.07;;
47713;SDS011;33475;46.614;13.888;2022-12-18T08:19:03;12.73;;;9.95;;
47713;SDS011;33475;46.614;13.888;2022-12-18T08:21:30;12.43;;;10.20;;
47713;SDS011;33475;46.614;13.888;2022-12-18T08:24:00;12.82;;;9.82;;
47713;SDS011;33475;46.614;13.888;2022-12-18T08:26:27;10.88;;;9.77;;
47713;SDS011;33475;46.614;13.888;2022-12-18T08:28:54;11.43;;;9.30;;
47713;SDS011;33475;46.614;13.888;2022-12-18T08:31:20;13.38;;;10.13;;
47713;SDS011;33475;46.614;13.888;2022-12-18T08:33:48;17.17;;;11.40;;
47713;SDS011;33475;46.614;13.888;2022-12-18T08:36:15;13.25;;;10.70;;
47713;SDS011;33475;46.614;13.888;2022-12-18T08:38:41;16.15;;;11.32;;
47713;SDS011;33475;46.614;13.888;2022-12-18T08:41:08;12.88;;;10.60;;
47713;SDS011;33475;46.614;13.888;2022-12-18T08:43:35;23.77;;;13.45;;
47713;SDS011;33475;46.614;13.888;2022-12-18T08:46:20;35.55;;;17.35;;
47713;SDS011;33475;46.614;13.888;2022-12-18T08:48:47;30.13;;;16.92;;
47713;SDS011;33475;46.614;13.888;2022-12-18T08:51:15;24.40;;;13.27;;
47713;SDS011;33475;46.614;13.888;2022-12-18T08:53:42;13.95;;;10.35;;
47713;SDS011;33475;46.614;13.888;2022-12-18T08:56:09;14.73;;;10.27;;
47713;SDS011;33475;46.614;13.888;2022-12-18T08:58:35;10.25;;;9.07;;
47713;SDS011;33475;46.614;13.888;2022-12-18T09:01:02;11.25;;;10.00;;
47713;SDS011;33475;46.614;13.888;2022-12-18T09:03:29;17.27;;;11.10;;
47713;SDS011;33475;46.614;13.888;2022-12-18T09:05:55;15.13;;;11.32;;
47713;SDS011;33475;46.614;13.888;2022-12-18T09:08:21;11.98;;;8.98;;
47713;SDS011;33475;46.614;13.888;2022-12-18T09:10:48;11.63;;;9.35;;
47713;SDS011;33475;46.614;13.888;2022-12-18T09:13:15;11.43;;;9.60;;
47713;SDS011;33475;46.614;13.888;2022-12-18T09:15:42;13.85;;;10.43;;
47713;SDS011;33475;46.614;13.888;2022-12-18T09:18:10;10.95;;;9.27;;
47713;SDS011;33475;46.614;13.888;2022-12-18T09:20:37;17.80;;;12.77;;
47713;SDS011;33475;46.614;13.888;2022-12-18T09:23:04;14.98;;;10.95;;
47713;SDS011;33475;46.614;13.888;2022-12-18T09:25:30;14.18;;;12.00;;
47713;SDS011;33475;46.614;13.888;2022-12-18T09:28:14;13.57;;;10.98;;
47713;SDS011;33475;46.614;13.888;2022-12-18T09:30:40;12.98;;;11.00;;
47713;SDS011;33475;46.614;13.888;2022-12-18T09:33:07;11.27;;;10.15;;
47713;SDS011;33475;46.614;13.888;2022-12-18T09:35:37;11.20;;;10.02;;
47713;SDS011;33475;46.614;13.888;2022-12-18T09:38:04;12.43;;;11.13;;
47713;SDS011;33475;46.614;13.888;2022-12-18T09:40:34;16.50;;;12.48;;
47713;SDS011;33475;46.614;13.888;2022-12-18T09:43:04;15.07;;;12.13;;
47713;SDS011;33475;46.614;13.888;2022-12-18T09:45:33;10.75;;;9.73;;
47713;SDS011;33475;46.614;13.888;2022-12-18T09:48:01;13.23;;;10.18;;
47713;SDS011;33475;46.614;13.888;2022-12-18T09:50:35;9.63;;;8.70;;
47713;SDS011;33475;46.614;13.888;2022-12-18T09:53:05;10.13;;;9.15;;
47713;SDS011;33475;46.614;13.888;2022-12-18T09:55:36;10.57;;;8.95;;
47713;SDS011;33475;46.614;13.888;2022-12-18T09:58:07;11.65;;;9.18;;
47713;SDS011;33475;46.614;13.888;2022-12-18T10:00:37;12.63;;;9.55;;
47713;SDS011;33475;46.614;13.888;2022-12-18T10:03:10;9.27;;;8.38;;
47713;SDS011;33475;46.614;13.888;2022-12-18T10:08:15;9.15;;;8.23;;
47713;SDS011;33475;46.614;13.888;2022-12-18T10:10:46;11.18;;;8.30;;
47713;SDS011;33475;46.614;13.888;2022-12-18T10:15:49;9.50;;;8.55;;
47713;SDS011;33475;46.614;13.888;2022-12-18T10:20:44;11.38;;;9.07;;
47713;SDS011;33475;46.614;13.888;2022-12-18T10:28:12;9.48;;;8.35;;
47713;SDS011;33475;46.614;13.888;2022-12-18T10:30:39;12.45;;;8.98;;
47713;SDS011;33475;46.614;13.888;2022-12-18T10:33:08;15.75;;;13.13;;
47713;SDS011;33475;46.614;13.888;2022-12-18T10:35:35;11.43;;;9.38;;
47713;SDS011;33475;46.614;13.888;2022-12-18T10:38:06;13.68;;;9.10;;
47713;SDS011;33475;46.614;13.888;2022-12-18T10:43:29;12.45;;;10.02;;
47713;SDS011;33475;46.614;13.888;2022-12-18T10:48:35;11.68;;;9.05;;
47713;SDS011;33475;46.614;13.888;2022-12-18T10:51:02;9.73;;;8.82;;
47713;SDS011;33475;46.614;13.888;2022-12-18T10:53:29;10.35;;;9.30;;
47713;SDS011;33475;46.614;13.888;2022-12-18T10:55:59;12.60;;;11.27;;
47713;SDS011;33475;46.614;13.888;2022-12-18T11:01:11;9.30;;;8.13;;
47713;SDS011;33475;46.614;13.888;2022-12-18T11:03:39;9.05;;;8.15;;
47713;SDS011;33475;46.614;13.888;2022-12-18T11:06:24;13.68;;;9.05;;
47713;SDS011;33475;46.614;13.888;2022-12-18T11:08:58;11.25;;;10.05;;
47713;SDS011;33475;46.614;13.888;2022-12-18T11:11:24;8.20;;;7.40;;
47713;SDS011;33475;46.614;13.888;2022-12-18T11:14:06;10.13;;;8.48;;
47713;SDS011;33475;46.614;13.888;2022-12-18T11:16:45;9.65;;;7.20;;
47713;SDS011;33475;46.614;13.888;2022-12-18T11:21:39;7.18;;;6.43;;
47713;SDS011;33475;46.614;13.888;2022-12-18T11:24:07;8.90;;;7.47;;
47713;SDS011;33475;46.614;13.888;2022-12-18T11:26:41;7.32;;;6.60;;
47713;SDS011;33475;46.614;13.888;2022-12-18T11:29:09;9.40;;;7.88;;
47713;SDS011;33475;46.614;13.888;2022-12-18T11:31:36;7.60;;;6.82;;
47713;SDS011;33475;46.614;13.888;2022-12-18T11:36:40;8.63;;;6.05;;
47713;SDS011;33475;46.614;13.888;2022-12-18T11:39:55;8.18;;;6.40;;
47713;SDS011;33475;46.614;13.888;2022-12-18T11:44:46;6.22;;;4.88;;
47713;SDS011;33475;46.614;13.888;2022-12-18T11:49:53;6.30;;;3.60;;
47713;SDS011;33475;46.614;13.888;2022-12-18T11:54:58;2.95;;;2.70;;
47713;SDS011;33475;46.614;13.888;2022-12-18T11:57:34;4.65;;;2.75;;
47713;SDS011;33475;46.614;13.888;2022-12-18T12:00:10;3.25;;;2.95;;
47713;SDS011;33475;46.614;13.888;2022-12-18T12:18:27;7.15;;;4.00;;
47713;SDS011;33475;46.614;13.888;2022-12-18T12:23:38;5.50;;;4.25;;
47713;SDS011;33475;46.614;13.888;2022-12-18T12:26:06;5.88;;;4.38;;
47713;SDS011;33475;46.614;13.888;2022-12-18T12:31:32;6.28;;;3.92;;
47713;SDS011;33475;46.614;13.888;2022-12-18T12:34:18;5.13;;;4.63;;
47713;SDS011;33475;46.614;13.888;2022-12-18T12:39:25;5.55;;;5.05;;
47713;SDS011;33475;46.614;13.888;2022-12-18T12:41:53;5.40;;;4.88;;
47713;SDS011;33475;46.614;13.888;2022-12-18T12:44:43;5.43;;;4.60;;
47713;SDS011;33475;46.614;13.888;2022-12-18T12:47:14;4.35;;;3.95;;
47713;SDS011;33475;46.614;13.888;2022-12-18T12:49:42;3.85;;;3.45;;
47713;SDS011;33475;46.614;13.888;2022-12-18T12:52:20;4.47;;;4.07;;
47713;SDS011;33475;46.614;13.888;2022-12-18T12:54:48;4.53;;;4.22;;
47713;SDS011;33475;46.614;13.888;2022-12-18T12:57:51;4.32;;;3.78;;
47713;SDS011;33475;46.614;13.888;2022-12-18T13:00:09;3.70;;;3.28;;
47713;SDS011;33475;46.614;13.888;2022-12-18T13:15:33;13.10;;;7.03;;
47713;SDS011;33475;46.614;13.888;2022-12-18T13:18:04;7.72;;;4.43;;
47713;SDS011;33475;46.614;13.888;2022-12-18T13:20:35;11.77;;;6.47;;
47713;SDS011;33475;46.614;13.888;2022-12-18T13:23:18;16.35;;;7.47;;
47713;SDS011;33475;46.614;13.888;2022-12-18T13:25:44;12.73;;;6.55;;
47713;SDS011;33475;46.614;13.888;2022-12-18T13:28:14;6.90;;;6.15;;
47713;SDS011;33475;46.614;13.888;2022-12-18T13:30:47;8.75;;;6.28;;
47713;SDS011;33475;46.614;13.888;2022-12-18T13:35:42;6.88;;;4.90;;
47713;SDS011;33475;46.614;13.888;2022-12-18T13:38:33;7.53;;;5.50;;
47713;SDS011;33475;46.614;13.888;2022-12-18T13:46:29;6.72;;;5.05;;
47713;SDS011;33475;46.614;13.888;2022-12-18T13:48:57;8.93;;;5.10;;
47713;SDS011;33475;46.614;13.888;2022-12-18T13:51:24;4.88;;;4.38;;
47713;SDS011;33475;46.614;13.888;2022-12-18T13:53:53;5.10;;;4.60;;
47713;SDS011;33475;46.614;13.888;2022-12-18T13:56:23;7.15;;;5.55;;
47713;SDS011;33475;46.614;13.888;2022-12-18T13:59:03;5.78;;;4.70;;
47713;SDS011;33475;46.614;13.888;2022-12-18T14:01:29;7.80;;;4.95;;
47713;SDS011;33475;46.614;13.888;2022-12-18T14:04:09;6.47;;;5.00;;
47713;SDS011;33475;46.614;13.888;2022-12-18T14:06:35;8.82;;;5.70;;
47713;SDS011;33475;46.614;13.888;2022-12-18T14:09:02;6.10;;;5.50;;
47713;SDS011;33475;46.614;13.888;2022-12-18T14:11:28;19.77;;;11.27;;
47713;SDS011;33475;46.614;13.888;2022-12-18T14:13:55;16.02;;;9.50;;
47713;SDS011;33475;46.614;13.888;2022-12-18T14:16:22;8.95;;;7.15;;
47713;SDS011;33475;46.614;13.888;2022-12-18T14:21:20;7.40;;;6.60;;
47713;SDS011;33475;46.614;13.888;2022-12-18T14:23:47;8.55;;;7.38;;
47713;SDS011;33475;46.614;13.888;2022-12-18T14:26:27;12.23;;;7.57;;
47713;SDS011;33475;46.614;13.888;2022-12-18T14:28:54;7.63;;;5.63;;
47713;SDS011;33475;46.614;13.888;2022-12-18T14:31:22;7.78;;;6.03;;
47713;SDS011;33475;46.614;13.888;2022-12-18T14:33:49;11.35;;;6.40;;
47713;SDS011;33475;46.614;13.888;2022-12-18T14:36:20;6.55;;;5.80;;
47713;SDS011;33475;46.614;13.888;2022-12-18T14:38:48;8.55;;;6.35;;
47713;SDS011;33475;46.614;13.888;2022-12-18T14:41:15;7.28;;;6.40;;
47713;SDS011;33475;46.614;13.888;2022-12-18T14:43:42;8.68;;;6.90;;
47713;SDS011;33475;46.614;13.888;2022-12-18T14:46:25;9.98;;;7.10;;
47713;SDS011;33475;46.614;13.888;2022-12-18T14:48:53;8.40;;;6.75;;
47713;SDS011;33475;46.614;13.888;2022-12-18T14:51:25;8.18;;;6.63;;
47713;SDS011;33475;46.614;13.888;2022-12-18T14:53:56;9.95;;;7.45;;
47713;SDS011;33475;46.614;13.888;2022-12-18T14:56:29;12.50;;;9.32;;
47713;SDS011;33475;46.614;13.888;2022-12-18T14:59:00;10.98;;;9.10;;
47713;SDS011;33475;46.614;13.888;2022-12-18T15:01:29;13.13;;;9.93;;
47713;SDS011;33475;46.614;13.888;2022-12-18T15:03:56;15.20;;;10.50;;
47713;SDS011;33475;46.614;13.888;2022-12-18T15:08:59;16.55;;;11.55;;
47713;SDS011;33475;46.614;13.888;2022-12-18T15:11:27;21.30;;;14.07;;
47713;SDS011;33475;46.614;13.888;2022-12-18T15:13:53;25.65;;;15.68;;
47713;SDS011;33475;46.614;13.888;2022-12-18T15:16:19;27.35;;;15.85;;
47713;SDS011;33475;46.614;13.888;2022-12-18T15:18:45;30.10;;;16.05;;
47713;SDS011;33475;46.614;13.888;2022-12-18T15:21:17;30.95;;;16.38;;
47713;SDS011;33475;46.614;13.888;2022-12-18T15:26:11;21.10;;;13.50;;
47713;SDS011;33475;46.614;13.888;2022-12-18T15:28:46;22.40;;;14.98;;
47713;SDS011;33475;46.614;13.888;2022-12-18T15:36:09;11.20;;;9.18;;
47713;SDS011;33475;46.614;13.888;2022-12-18T15:38:36;13.38;;;9.65;;
47713;SDS011;33475;46.614;13.888;2022-12-18T15:41:02;14.02;;;9.70;;
47713;SDS011;33475;46.614;13.888;2022-12-18T15:43:31;12.77;;;9.00;;
47713;SDS011;33475;46.614;13.888;2022-12-18T15:48:29;9.07;;;8.13;;
47713;SDS011;33475;46.614;13.888;2022-12-18T15:50:56;12.35;;;7.70;;
47713;SDS011;33475;46.614;13.888;2022-12-18T15:53:23;9.35;;;7.75;;
47713;SDS011;33475;46.614;13.888;2022-12-18T15:55:51;11.40;;;8.52;;
47713;SDS011;33475;46.614;13.888;2022-12-18T15:58:35;12.27;;;8.88;;
47713;SDS011;33475;46.614;13.888;2022-12-18T16:01:02;13.90;;;9.52;;
47713;SDS011;33475;46.614;13.888;2022-12-18T16:03:28;10.80;;;8.98;;
47713;SDS011;33475;46.614;13.888;2022-12-18T16:05:54;84.68;;;44.70;;
47713;SDS011;33475;46.614;13.888;2022-12-18T16:08:20;155.52;;;99.93;;
47713;SDS011;33475;46.614;13.888;2022-12-18T16:10:46;129.80;;;53.53;;
47713;SDS011;33475;46.614;13.888;2022-12-18T16:13:13;24.02;;;14.88;;
47713;SDS011;33475;46.614;13.888;2022-12-18T16:15:40;25.75;;;15.75;;
47713;SDS011;33475;46.614;13.888;2022-12-18T16:18:06;21.50;;;13.68;;
47713;SDS011;33475;46.614;13.888;2022-12-18T16:20:32;21.73;;;15.15;;
47713;SDS011;33475;46.614;13.888;2022-12-18T16:22:58;20.98;;;14.95;;
47713;SDS011;33475;46.614;13.888;2022-12-18T16:25:26;22.15;;;14.88;;
47713;SDS011;33475;46.614;13.888;2022-12-18T16:27:53;42.10;;;17.58;;
47713;SDS011;33475;46.614;13.888;2022-12-18T16:30:27;29.85;;;14.70;;
47713;SDS011;33475;46.614;13.888;2022-12-18T16:32:54;30.23;;;14.05;;
47713;SDS011;33475;46.614;13.888;2022-12-18T16:35:20;18.13;;;9.63;;